Latest Weather Observations for Yarram Airport

IDV60801

Issued at 12:35 am EST Thursday 2 October 2014 (issued every 30 minutes, with the page automatically refreshed every 10 minutes)

About weather observations | Map of weather stations | Latest weather observations for VIC | Other Formats
Station Details ID: 085151 Name: YARRAM AIRPORT Lat: -38.56 Lon: 146.75 Height: 17.9 m
Data from the previous 72 hours. | See also: Recent months at Yarram Airport
Date/Time
EST
Temp
°C
App
Temp
°C
Dew
Point
Rel
Hum
%
Delta-T
°C
Wind Press
QNH
hPa
Press
MSL
hPa
Rain
since 9 am
mm
Dir
 
Spd
km/h
Gust
km/h
Spd
kts
Gust
kts
02/12:30am 9.8 6.0 7.6 86 1.0 WNW 17 20 9 11 1022.4 1022.4 -
02/12:00am 10.0 6.3 7.9 87 1.0 WNW 17 20 9 11 1022.7 1022.7 -
 
Date/Time
EST
Temp
°C
App
Temp
°C
Dew
Point
Rel
Hum
%
Delta-T
°C
Wind Press
QNH
hPa
Press
MSL
hPa
Rain
since 9 am
mm
Dir
 
Spd
km/h
Gust
km/h
Spd
kts
Gust
kts
01/11:30pm 9.7 6.0 8.0 89 0.8 WNW 17 20 9 11 1022.8 1022.8 -
01/11:00pm 10.3 6.3 8.2 87 1.0 W 19 22 10 12 1022.9 1022.9 -
01/10:30pm 10.4 7.2 8.3 87 1.0 WNW 15 19 8 10 1023.1 1023.1 -
01/10:00pm 10.2 6.3 8.8 91 0.7 WNW 19 20 10 11 1023.2 1023.2 -
01/09:30pm 10.3 6.2 8.6 89 0.8 W 20 30 11 16 1023.3 1023.3 -
01/09:00pm 10.4 6.1 8.0 85 1.2 W 20 26 11 14 1023.4 1023.4 0.0
01/08:30pm 10.3 6.1 7.4 82 1.4 W 19 28 10 15 1023.4 1023.4 -
01/08:00pm 10.0 5.5 6.9 81 1.5 W 20 28 11 15 1023.2 1023.2 -
01/07:30pm 10.5 5.6 7.0 79 1.7 W 22 32 12 17 1023.1 1023.1 -
01/07:00pm 10.0 4.3 6.7 80 1.5 W 26 39 14 21 1022.5 1022.5 -
01/06:30pm 10.5 4.8 6.5 76 1.9 W 26 32 14 17 1022.3 1022.3 -
01/06:00pm 10.9 5.5 6.5 74 2.1 W 24 32 13 17 1022.3 1022.3 -
01/05:30pm 11.7 6.3 6.2 69 2.6 WSW 24 33 13 18 1022.0 1022.0 -
01/05:00pm 11.9 5.2 5.5 65 3.0 W 30 41 16 22 1021.8 1021.8 -
01/04:30pm 12.7 6.2 6.7 67 2.9 WSW 30 43 16 23 1021.7 1021.7 -
01/04:00pm 13.4 6.4 6.0 61 3.5 WSW 32 46 17 25 1021.7 1021.7 -
01/03:30pm 12.8 4.9 6.2 64 3.1 WSW 37 52 20 28 1021.6 1021.6 -
01/03:00pm 13.5 5.2 6.1 61 3.5 WSW 39 48 21 26 1021.4 1021.4 0.6
01/02:30pm 12.3 5.1 5.9 65 3.0 W 33 52 18 28 1021.4 1021.4 -
01/02:26pm 12.3 5.1 5.7 64 3.1 W 33 52 18 28 1021.2 1021.2 -
01/02:00pm 14.4 8.1 7.2 62 3.5 WSW 30 39 16 21 1020.8 1020.8 -
01/01:30pm 13.1 6.1 6.0 62 3.4 WSW 32 43 17 23 1021.7 1021.7 -
01/01:00pm 13.4 6.1 7.4 67 2.9 WSW 35 44 19 24 1021.5 1021.5 -
01/12:30pm 13.7 6.5 7.7 67 3.0 SW 35 46 19 25 1021.5 1021.5 -
01/12:19pm 13.6 6.0 3.9 52 4.4 WSW 33 52 18 28 1021.6 1021.6 -
01/12:00pm 13.0 6.3 7.5 69 2.7 W 32 46 17 25 1021.6 1021.6 -
01/11:47am 13.6 6.8 7.8 68 2.9 WSW 33 54 18 29 1021.4 1021.4 0.6
01/11:30am 11.2 3.9 5.3 67 2.7 W 33 46 18 25 1021.4 1021.4 0.6
01/11:00am 12.3 6.4 7.6 73 2.3 W 28 33 15 18 1021.3 1021.3 0.6
01/10:39am 11.3 5.6 8.3 82 1.5 W 28 48 15 26 1021.4 1021.4 0.6
01/10:30am 10.4 4.3 8.2 86 1.1 WSW 30 46 16 25 1021.4 1021.4 0.6
01/10:20am 11.1 4.1 6.8 75 2.0 W 33 52 18 28 1021.4 1021.4 0.4
01/10:00am 12.2 6.6 8.7 79 1.7 W 28 41 15 22 1021.1 1021.1 0.4
01/09:34am 9.1 2.2 6.5 84 1.2 W 32 50 17 27 1021.1 1021.2 0.4
01/09:30am 9.1 1.6 6.4 83 1.2 WSW 35 50 19 27 1021.2 1021.3 0.4
01/09:00am 11.1 4.3 5.2 67 2.7 WSW 30 46 16 25 1020.5 1020.6 13.0
01/08:30am 11.1 4.9 6.0 71 2.4 WSW 28 39 15 21 1020.1 1020.2 13.0
01/08:00am 9.5 5.2 6.8 83 1.3 WNW 19 26 10 14 1019.3 1019.4 13.0
01/07:30am 7.3 0.3 5.9 91 0.6 WSW 32 39 17 21 1019.3 1019.4 12.8
01/07:00am 8.5 2.4 4.9 78 1.6 W 26 33 14 18 1018.1 1018.1 10.2
01/06:30am 7.1 2.1 4.8 85 1.0 W 20 26 11 14 1017.8 1017.8 10.2
01/06:00am 7.6 1.1 4.7 82 1.3 W 28 41 15 22 1017.0 1017.0 10.2
01/05:30am 7.6 2.0 5.2 85 1.1 W 24 33 13 18 1016.1 1016.1 10.2
01/05:00am 6.4 2.0 4.7 89 0.7 W 17 22 9 12 1015.7 1015.7 10.2
01/04:30am 7.3 1.3 5.4 88 0.8 W 26 41 14 22 1015.2 1015.2 10.2
01/04:00am 6.7 0.9 4.5 86 1.0 W 24 32 13 17 1014.6 1014.6 10.2
01/03:30am 7.0 1.0 5.2 88 0.8 WSW 26 32 14 17 1014.5 1014.5 10.0
01/03:00am 7.8 1.3 4.9 82 1.3 W 28 41 15 22 1013.6 1013.6 9.4
01/02:30am 7.3 1.2 4.9 85 1.1 WNW 26 37 14 20 1013.1 1013.1 9.4
01/02:00am 7.4 0.9 4.9 84 1.1 W 28 39 15 21 1012.9 1012.9 9.4
01/01:30am 7.2 0.0 5.2 87 0.9 W 32 44 17 24 1012.3 1012.3 9.4
01/01:14am 7.6 0.4 5.1 84 1.1 WNW 32 52 17 28 1012.3 1012.3 9.2
01/01:00am 7.4 0.2 4.9 84 1.1 WNW 32 41 17 22 1012.1 1012.1 9.2
01/12:30am 7.4 0.1 5.4 87 0.9 W 33 46 18 25 1011.9 1011.9 9.2
01/12:00am 7.3 2.0 4.9 85 1.1 WNW 22 30 12 16 1011.5 1011.5 9.0
 
Date/Time
EST
Temp
°C
App
Temp
°C
Dew
Point
Rel
Hum
%
Delta-T
°C
Wind Press
QNH
hPa
Press
MSL
hPa
Rain
since 9 am
mm
Dir
 
Spd
km/h
Gust
km/h
Spd
kts
Gust
kts
30/11:30pm 7.4 1.0 5.2 86 1.0 WNW 28 37 15 20 1011.5 1011.5 9.0
30/11:00pm 7.5 -1.8 5.1 85 1.1 W 43 61 23 33 1011.2 1011.2 9.0
30/10:52pm 8.0 -0.7 5.8 86 1.0 WSW 41 61 22 33 1011.4 1011.4 8.4
30/10:46pm 8.2 0.2 5.8 85 1.1 WSW 37 52 20 28 1011.3 1011.3 8.4
30/10:30pm 8.5 1.8 5.4 81 1.4 WNW 30 37 16 20 1010.3 1010.3 8.2
30/10:00pm 8.4 2.5 5.9 84 1.1 W 26 35 14 19 1010.5 1010.5 8.2
30/09:30pm 7.9 3.4 6.0 88 0.9 WNW 19 24 10 13 1010.3 1010.3 8.0
30/09:00pm 8.2 -0.7 6.7 90 0.7 W 43 63 23 34 1010.3 1010.3 8.0
30/08:52pm 8.6 2.0 5.9 83 1.2 WSW 30 56 16 30 1010.3 1010.3 7.4
30/08:30pm 9.0 3.8 7.3 89 0.8 W 24 35 13 19 1009.7 1009.7 7.4
30/08:08pm 9.1 2.3 6.7 85 1.1 WNW 32 50 17 27 1009.1 1009.1 6.8
30/08:00pm 9.2 2.2 6.8 85 1.1 WNW 33 48 18 26 1009.0 1009.0 6.6
30/07:30pm 9.7 3.2 6.6 81 1.4 WNW 30 44 16 24 1008.5 1008.5 6.2
30/07:00pm 9.2 2.0 6.1 81 1.4 WNW 33 46 18 25 1007.6 1007.6 6.2
30/06:30pm 8.6 1.5 6.4 86 1.0 W 33 48 18 26 1008.2 1008.2 6.2
30/06:00pm 8.9 0.4 6.9 87 0.9 WNW 41 50 22 27 1007.6 1007.6 4.8
30/05:30pm 9.2 -0.1 7.6 90 0.8 W 46 67 25 36 1006.9 1006.9 4.2
30/05:00pm 10.4 0.9 8.5 88 0.9 WSW 48 74 26 40 1005.2 1005.2 4.0
30/04:30pm 11.1 0.7 9.2 88 0.9 WSW 54 76 29 41 1003.9 1003.9 4.0
30/04:05pm 14.0 5.3 10.0 77 2.1 W 46 76 25 41 1002.1 1002.1 0.8
30/04:03pm 16.2 8.3 10.9 71 2.8 WSW 43 56 23 30 1001.8 1001.8 0.2
30/04:00pm 17.6 11.5 9.8 60 4.1 W 32 50 17 27 1001.1 1001.1 0.0
30/03:54pm 18.1 11.9 9.5 57 4.5 WNW 32 41 17 22 1000.1 1000.1 0.0
30/03:30pm 21.0 12.2 7.3 41 7.0 NNW 43 63 23 34 999.5 999.5 0.0
30/03:00pm 21.8 12.5 7.6 40 7.4 NW 46 67 25 36 999.9 999.9 0.0
30/02:30pm 22.2 14.5 8.7 42 7.2 NW 39 57 21 31 1000.3 1000.3 0.0
30/02:06pm 22.4 14.2 9.6 44 6.9 WNW 43 61 23 33 1000.7 1000.7 0.0
30/02:00pm 22.2 12.9 7.6 39 7.6 NW 46 61 25 33 1000.8 1000.8 0.0
30/01:30pm 22.8 13.5 7.4 37 8.0 NW 46 65 25 35 1001.8 1001.8 0.0
30/01:01pm 22.5 14.4 7.1 37 8.0 NW 39 61 21 33 1002.3 1002.3 0.0
30/01:00pm 22.4 14.6 8.1 40 7.6 NW 39 56 21 30 1002.3 1002.3 0.0
30/12:30pm 20.8 14.3 6.7 40 7.1 WNW 30 52 16 28 1003.0 1003.0 0.0
30/12:12pm 20.3 13.7 7.7 44 6.5 NW 32 50 17 27 1003.3 1003.3 0.0
30/12:00pm 20.6 13.7 6.5 40 7.1 NW 32 43 17 23 1003.5 1003.5 0.0
30/11:30am 21.3 15.8 9.2 46 6.4 NNW 28 46 15 25 1004.2 1004.2 0.0
30/11:13am 20.9 13.8 8.2 44 6.6 NW 35 54 19 29 1004.8 1004.8 0.0
30/11:00am 20.6 13.3 8.6 46 6.3 NW 37 54 20 29 1005.1 1005.1 0.0
30/10:38am 20.4 15.2 10.2 52 5.5 NW 28 46 15 25 1005.9 1005.9 0.0
30/10:30am 19.5 14.2 9.7 53 5.2 NW 28 35 15 19 1006.1 1006.1 0.0
30/10:00am 19.7 15.9 9.9 53 5.3 NW 20 30 11 16 1006.7 1006.7 0.0
30/09:30am 19.1 15.2 10.9 59 4.5 NW 22 30 12 16 1007.2 1007.2 0.0
30/09:00am 18.0 13.4 10.9 63 3.8 NW 26 35 14 19 1007.4 1007.4 0.0
30/08:30am 15.9 14.2 11.1 73 2.6 SW 11 15 6 8 1008.3 1008.3 0.0
30/08:00am 13.4 12.4 11.1 86 1.2 WSW 7 9 4 5 1008.5 1008.5 0.0
30/07:30am 12.2 11.2 10.3 88 1.0 WNW 6 7 3 4 1008.4 1008.4 0.0
30/07:00am 9.2 7.3 9.2 100 0.0 W 9 11 5 6 1008.6 1008.6 0.0
30/06:30am 6.3 5.1 6.3 100 0.0 WNW 2 13 1 7 1008.6 1008.6 0.0
30/06:00am 5.5 4.4 5.1 97 0.2 CALM 0 0 0 0 1008.0 1008.0 0.0
30/05:30am 6.5 4.3 6.4 99 0.0 WNW 7 11 4 6 1007.8 1007.8 0.0
30/05:00am 5.9 3.7 5.5 97 0.2 N 6 9 3 5 1008.0 1008.0 0.0
30/04:30am 6.1 2.9 5.2 94 0.4 NNE 11 13 6 7 1007.9 1007.9 0.0
30/04:00am 6.8 4.4 5.3 90 0.7 NE 7 7 4 4 1008.3 1008.3 0.0
30/03:30am 7.9 5.3 6.2 89 0.8 NNE 9 11 5 6 1008.5 1008.5 0.0
30/03:00am 8.8 7.4 5.5 80 1.5 N 2 7 1 4 1008.9 1008.9 0.0
30/02:30am 10.1 8.6 7.0 81 1.5 WNW 4 11 2 6 1009.3 1009.3 0.0
30/02:00am 10.4 7.0 7.6 83 1.3 SW 15 20 8 11 1009.6 1009.6 0.0
30/01:30am 10.9 10.2 8.5 85 1.2 N 2 9 1 5 1009.7 1009.7 0.0
30/01:00am 9.6 7.6 7.2 85 1.1 NNE 7 11 4 6 1010.2 1010.2 0.0
30/12:30am 10.5 7.9 7.9 84 1.3 NNE 11 15 6 8 1010.6 1010.6 0.0
30/12:00am 9.6 6.7 8.0 90 0.8 NNE 13 17 7 9 1011.1 1011.1 0.0
 
Date/Time
EST
Temp
°C
App
Temp
°C
Dew
Point
Rel
Hum
%
Delta-T
°C
Wind Press
QNH
hPa
Press
MSL
hPa
Rain
since 9 am
mm
Dir
 
Spd
km/h
Gust
km/h
Spd
kts
Gust
kts
29/11:30pm 9.8 6.5 7.9 88 0.9 NNE 15 17 8 9 1011.5 1011.5 0.0
29/11:00pm 11.3 8.5 8.5 83 1.4 N 13 17 7 9 1011.9 1011.9 0.0
29/10:30pm 11.7 9.1 9.3 85 1.2 N 13 19 7 10 1011.9 1011.9 0.0
29/10:00pm 12.1 8.5 9.8 86 1.2 N 19 26 10 14 1012.0 1012.0 0.0
29/09:30pm 12.0 8.5 10.2 89 0.9 N 19 22 10 12 1012.1 1012.1 0.0
29/09:00pm 12.3 8.7 10.4 88 1.0 NNE 20 24 11 13 1012.2 1012.2 0.0
29/08:30pm 11.7 8.6 10.3 91 0.7 NNE 17 20 9 11 1012.5 1012.5 0.0
29/08:00pm 12.2 9.9 10.4 89 0.9 NE 13 15 7 8 1012.4 1012.4 0.0
29/07:30pm 12.9 11.5 10.8 87 1.1 NE 9 13 5 7 1012.2 1012.2 0.0
29/07:00pm 11.9 9.0 9.6 86 1.2 NE 15 20 8 11 1011.6 1011.6 0.0
29/06:30pm 13.4 13.3 9.6 78 1.9 CALM 0 0 0 0 1011.1 1011.1 0.0
29/06:00pm 14.6 12.2 10.2 75 2.3 SW 13 17 7 9 1010.7 1010.7 0.0
29/05:30pm 16.3 13.0 11.5 73 2.6 SW 20 26 11 14 1010.3 1010.3 0.0
29/05:00pm 19.6 16.0 10.6 56 4.9 W 20 26 11 14 1010.0 1010.0 0.0
29/04:30pm 20.1 16.5 10.5 54 5.2 WSW 20 26 11 14 1009.7 1009.7 0.0
29/04:00pm 20.3 16.3 10.4 53 5.4 WSW 22 30 12 16 1009.6 1009.6 0.0
29/03:30pm 20.3 15.5 10.4 53 5.4 WSW 26 32 14 17 1009.8 1009.8 0.0
29/03:00pm 20.1 14.6 9.1 49 5.8 WSW 28 39 15 21 1009.8 1009.8 0.0
29/02:30pm 20.5 16.4 10.0 51 5.7 W 22 30 12 16 1009.9 1009.9 0.0
29/02:00pm 20.2 16.6 10.0 52 5.5 W 19 26 10 14 1010.4 1010.4 0.0
29/01:30pm 19.5 14.5 8.2 48 5.8 W 24 30 13 16 1011.0 1011.0 0.0
29/01:00pm 19.6 15.6 8.9 50 5.6 WNW 20 37 11 20 1011.2 1011.2 0.0
29/12:30pm 19.3 13.9 9.5 53 5.2 NW 28 32 15 17 1011.7 1011.7 0.0
29/12:00pm 18.8 14.3 8.5 51 5.3 WNW 22 35 12 19 1012.1 1012.1 0.0
29/11:30am 18.2 12.8 9.5 57 4.6 W 28 37 15 20 1012.3 1012.3 0.0
29/11:00am 18.0 13.6 9.1 56 4.6 W 22 30 12 16 1012.5 1012.5 0.0
29/10:30am 17.5 13.4 10.1 62 3.9 W 22 33 12 18 1012.6 1012.6 0.0
29/10:00am 17.0 12.2 8.7 58 4.3 W 24 32 13 17 1012.8 1012.8 0.0
29/09:30am 16.2 11.5 9.2 63 3.6 W 24 33 13 18 1012.5 1012.5 0.0
29/09:00am 16.1 10.2 9.1 63 3.6 W 30 39 16 21 1012.5 1012.5 0.2
29/08:30am 15.6 10.2 9.5 67 3.2 W 28 37 15 20 1012.3 1012.3 0.2
29/08:00am 15.2 11.0 9.6 69 2.9 W 22 35 12 19 1011.7 1011.7 0.2
29/07:30am 14.6 9.1 9.0 69 2.9 WNW 28 39 15 21 1011.2 1011.2 0.2
29/07:00am 13.7 10.0 9.6 76 2.1 W 19 24 10 13 1011.3 1011.3 0.2
29/06:30am 13.2 9.3 8.7 74 2.3 WNW 19 24 10 13 1011.0 1011.0 0.2
29/06:00am 13.2 7.9 8.5 73 2.4 WNW 26 37 14 20 1010.0 1010.0 0.2
29/05:30am 12.9 7.9 8.2 73 2.3 WNW 24 33 13 18 1009.8 1009.8 0.2
29/05:00am 13.1 8.0 7.8 70 2.6 WNW 24 33 13 18 1009.8 1009.8 0.2
29/04:30am 12.6 7.8 7.5 71 2.5 W 22 32 12 17 1009.1 1009.1 0.2
29/04:00am 12.7 7.3 7.8 72 2.4 WNW 26 37 14 20 1008.5 1008.5 0.2
29/03:30am 12.7 7.9 8.8 77 2.0 WNW 24 33 13 18 1008.1 1008.1 0.2
29/03:00am 13.1 8.8 9.4 78 1.9 WNW 22 28 12 15 1008.4 1008.4 0.2
29/02:30am 12.6 8.9 10.0 84 1.3 WNW 20 28 11 15 1008.1 1008.1 0.2
29/02:00am 12.7 7.4 9.7 82 1.5 W 28 39 15 21 1008.3 1008.3 0.2
29/01:30am 13.8 8.4 8.2 69 2.8 WSW 26 37 14 20 1007.1 1007.1 0.0
29/01:00am 14.2 9.8 8.8 70 2.7 W 22 32 12 17 1007.1 1007.1 0.0

Other Formats:

Comma delimited format used in spreadsheet applications
http://www.bom.gov.au/fwo/IDV60801/IDV60801.95890.axf

JavaScript Object Notation format (JSON) in row-major order
http://www.bom.gov.au/fwo/IDV60801/IDV60801.95890.json